Black River Falls, WI

10:53 AM CST on January 27, 2015 (GMT -0600)
Black River Falls Area | Change Station
CLOSE
Current Station
Airport
Location: Black River Falls,
Elevation: 837 ft
Nearby Weather Stations

Elev 837 ft 44.25 °N, 90.86 °W | Updated 18 minutes ago

Overcast
Overcast
28 °F
Feels Like 28 °F
N
0
Wind Variable Wind from North

Today
High -- | Low -- °F
--% Chance of Precip.
Yesterday
High -- | Low -- °F
Precip. -- in
7:26 AM 5:05 PM
First Quarter, 55% visible
Pressure 30.18 in
Visibility 7.0 miles
Clouds Mostly Cloudy 1100 ft
Overcast 2500 ft
Dew Point 23 °F
Humidity 84%
Rainfall 0.00 in
Snow Depth Not available.
UV 1 out of 12
Pollen .10 out of 12
Air Quality Not available.
Flu Activity Not available.
METAR KBCK 271635Z AUTO 00000KT 7SM BKN011 OVC025 M02/M05 A3018 RMK AO2 T10241048

More Conditions Fewer Conditions

Pressure 30.18 in
Visibility 7.0 miles
Clouds Mostly Cloudy 1100 ft
Overcast 2500 ft
Dew Point 23 °F
Humidity 84%
Rainfall 0.00 in
Snow Depth Not available.
UV 1 out of 12
Pollen .10 out of 12
Air Quality Not available.
Flu Activity Not available.
METAR KBCK 271635Z AUTO 00000KT 7SM BKN011 OVC025 M02/M05 A3018 RMK AO2 T10241048

More Conditions Fewer Conditions

10-Day Weather Forecast

Almanac

Astronomy

Jan. 27, 2015 Rise Set
Actual Time
Civil Twilight
Nautical Twilight
Astronomical Twilight
Moon
Length of Visible Light
Length of Day
Tomorrow will be .
, % of the Moon is Illuminated

Today's Extremes

State Highs State Lows

Community

WunderPhotos

Upload Photos

1,790,725 photos uploaded!

WunderBlogs® & News

Nearby

Air Quality

  Air Quality AQ Index Pollutant
Not available.

Snow Depth

Station Depth Elevation

Earthquake Activity

City Distance Mag. Time & Date
Minimum magnitude displayed is 2.5.

Coastal Water Temperatures

Place Temperature

Nearby Weather Stations